sensor_id;sensor_type;location;lat;lon;timestamp;pressure;altitude;pressure_sealevel;temperature;humidity
68141;BME280;54941;52.220;104.306;2023-12-07T00:01:17;94071.66;;;-16.34;74.12
68141;BME280;54941;52.220;104.306;2023-12-07T00:03:43;94086.69;;;-16.37;74.49
68141;BME280;54941;52.220;104.306;2023-12-07T00:06:10;94092.47;;;-16.20;72.73
68141;BME280;54941;52.220;104.306;2023-12-07T00:08:38;94113.47;;;-16.00;70.77
68141;BME280;54941;52.220;104.306;2023-12-07T00:11:04;94106.66;;;-16.22;71.38
68141;BME280;54941;52.220;104.306;2023-12-07T00:13:30;94113.78;;;-16.13;71.96
68141;BME280;54941;52.220;104.306;2023-12-07T00:15:57;94123.72;;;-16.37;72.92
68141;BME280;54941;52.220;104.306;2023-12-07T00:18:23;94146.13;;;-16.45;73.03
68141;BME280;54941;52.220;104.306;2023-12-07T00:20:49;94167.22;;;-16.25;73.16
68141;BME280;54941;52.220;104.306;2023-12-07T00:23:16;94181.00;;;-16.18;72.59
68141;BME280;54941;52.220;104.306;2023-12-07T00:25:44;94169.59;;;-16.09;72.34
68141;BME280;54941;52.220;104.306;2023-12-07T00:28:10;94169.31;;;-15.96;71.69
68141;BME280;54941;52.220;104.306;2023-12-07T00:30:36;94173.91;;;-16.06;71.86
68141;BME280;54941;52.220;104.306;2023-12-07T00:33:03;94170.47;;;-16.08;71.66
68141;BME280;54941;52.220;104.306;2023-12-07T00:35:29;94159.50;;;-16.09;72.12
68141;BME280;54941;52.220;104.306;2023-12-07T00:37:55;94168.25;;;-16.01;72.06
68141;BME280;54941;52.220;104.306;2023-12-07T00:40:22;94171.44;;;-16.05;72.01
68141;BME280;54941;52.220;104.306;2023-12-07T00:42:50;94173.41;;;-15.98;72.60
68141;BME280;54941;52.220;104.306;2023-12-07T00:45:16;94160.84;;;-15.75;71.74
68141;BME280;54941;52.220;104.306;2023-12-07T00:47:43;94165.19;;;-15.94;71.62
68141;BME280;54941;52.220;104.306;2023-12-07T00:50:12;94166.72;;;-15.97;72.58
68141;BME280;54941;52.220;104.306;2023-12-07T00:52:38;94154.06;;;-15.76;72.00
68141;BME280;54941;52.220;104.306;2023-12-07T00:55:05;94169.75;;;-15.85;72.62
68141;BME280;54941;52.220;104.306;2023-12-07T00:57:32;94146.38;;;-15.79;72.87
68141;BME280;54941;52.220;104.306;2023-12-07T01:00:00;94171.19;;;-15.71;72.00
68141;BME280;54941;52.220;104.306;2023-12-07T01:02:26;94168.63;;;-15.92;72.16
68141;BME280;54941;52.220;104.306;2023-12-07T01:04:53;94161.69;;;-15.54;72.03
68141;BME280;54941;52.220;104.306;2023-12-07T01:07:19;94159.84;;;-15.58;71.86
68141;BME280;54941;52.220;104.306;2023-12-07T01:09:45;94180.56;;;-15.68;71.60
68141;BME280;54941;52.220;104.306;2023-12-07T01:12:12;94177.75;;;-15.74;71.20
68141;BME280;54941;52.220;104.306;2023-12-07T01:14:38;94180.88;;;-15.60;71.39
68141;BME280;54941;52.220;104.306;2023-12-07T01:17:06;94182.00;;;-15.52;71.23
68141;BME280;54941;52.220;104.306;2023-12-07T01:19:32;94187.59;;;-15.61;71.63
68141;BME280;54941;52.220;104.306;2023-12-07T01:21:59;94182.44;;;-15.42;71.55
68141;BME280;54941;52.220;104.306;2023-12-07T01:24:25;94177.50;;;-15.39;71.44
68141;BME280;54941;52.220;104.306;2023-12-07T01:26:51;94164.59;;;-15.45;71.59
68141;BME280;54941;52.220;104.306;2023-12-07T01:29:18;94164.03;;;-15.60;72.18
68141;BME280;54941;52.220;104.306;2023-12-07T01:31:44;94154.78;;;-15.58;72.60
68141;BME280;54941;52.220;104.306;2023-12-07T01:34:12;94166.41;;;-15.63;72.51
68141;BME280;54941;52.220;104.306;2023-12-07T01:36:38;94162.94;;;-15.44;73.01
68141;BME280;54941;52.220;104.306;2023-12-07T01:39:05;94143.22;;;-15.30;72.46
68141;BME280;54941;52.220;104.306;2023-12-07T01:41:32;94163.16;;;-14.95;71.30
68141;BME280;54941;52.220;104.306;2023-12-07T01:43:58;94186.13;;;-15.34;70.59
68141;BME280;54941;52.220;104.306;2023-12-07T01:46:25;94186.69;;;-15.20;69.99
68141;BME280;54941;52.220;104.306;2023-12-07T01:48:51;94188.63;;;-15.35;70.28
68141;BME280;54941;52.220;104.306;2023-12-07T01:51:19;94180.97;;;-15.37;70.32
68141;BME280;54941;52.220;104.306;2023-12-07T01:53:46;94177.38;;;-15.42;70.04
68141;BME280;54941;52.220;104.306;2023-12-07T01:56:13;94194.38;;;-15.39;70.35
68141;BME280;54941;52.220;104.306;2023-12-07T01:58:40;94211.31;;;-15.57;71.66
68141;BME280;54941;52.220;104.306;2023-12-07T02:01:06;94204.78;;;-15.52;72.22
68141;BME280;54941;52.220;104.306;2023-12-07T02:03:33;94222.06;;;-15.21;71.77
68141;BME280;54941;52.220;104.306;2023-12-07T02:06:00;94203.44;;;-15.44;70.70
68141;BME280;54941;52.220;104.306;2023-12-07T02:08:28;94211.06;;;-15.43;71.26
68141;BME280;54941;52.220;104.306;2023-12-07T02:10:55;94207.03;;;-15.39;71.73
68141;BME280;54941;52.220;104.306;2023-12-07T02:13:21;94219.59;;;-15.41;72.04
68141;BME280;54941;52.220;104.306;2023-12-07T02:15:49;94234.91;;;-15.17;71.99
68141;BME280;54941;52.220;104.306;2023-12-07T02:18:20;94250.66;;;-15.24;72.26
68141;BME280;54941;52.220;104.306;2023-12-07T02:20:55;94255.41;;;-15.32;72.29
68141;BME280;54941;52.220;104.306;2023-12-07T02:23:25;94247.63;;;-15.36;73.09
68141;BME280;54941;52.220;104.306;2023-12-07T02:26:14;94246.41;;;-15.25;73.02
68141;BME280;54941;52.220;104.306;2023-12-07T02:28:46;94246.72;;;-15.38;72.63
68141;BME280;54941;52.220;104.306;2023-12-07T02:31:12;94250.94;;;-15.16;71.85
68141;BME280;54941;52.220;104.306;2023-12-07T02:33:38;94257.94;;;-15.11;71.72
68141;BME280;54941;52.220;104.306;2023-12-07T02:36:06;94277.03;;;-15.19;72.67
68141;BME280;54941;52.220;104.306;2023-12-07T02:38:32;94302.09;;;-15.25;73.74
68141;BME280;54941;52.220;104.306;2023-12-07T02:40:59;94325.84;;;-14.81;72.31
68141;BME280;54941;52.220;104.306;2023-12-07T02:43:27;94326.19;;;-14.72;71.89
68141;BME280;54941;52.220;104.306;2023-12-07T02:45:55;94324.59;;;-14.91;71.81
68141;BME280;54941;52.220;104.306;2023-12-07T02:48:22;94313.72;;;-14.88;71.84
68141;BME280;54941;52.220;104.306;2023-12-07T02:50:48;94321.00;;;-14.75;72.00
68141;BME280;54941;52.220;104.306;2023-12-07T02:53:15;94335.84;;;-14.63;71.94
68141;BME280;54941;52.220;104.306;2023-12-07T02:55:41;94357.59;;;-14.68;71.83
68141;BME280;54941;52.220;104.306;2023-12-07T02:58:07;94344.13;;;-14.67;72.30
68141;BME280;54941;52.220;104.306;2023-12-07T03:00:34;94348.63;;;-14.38;71.78
68141;BME280;54941;52.220;104.306;2023-12-07T03:03:02;94357.94;;;-14.59;72.53
68141;BME280;54941;52.220;104.306;2023-12-07T03:05:28;94377.13;;;-14.23;72.12
68141;BME280;54941;52.220;104.306;2023-12-07T03:07:54;94377.28;;;-14.40;71.39
68141;BME280;54941;52.220;104.306;2023-12-07T03:10:21;94389.16;;;-13.96;69.39
68141;BME280;54941;52.220;104.306;2023-12-07T03:12:47;94400.63;;;-14.49;70.41
68141;BME280;54941;52.220;104.306;2023-12-07T03:15:13;94394.56;;;-14.53;69.50
68141;BME280;54941;52.220;104.306;2023-12-07T03:17:40;94393.34;;;-14.82;70.92
68141;BME280;54941;52.220;104.306;2023-12-07T03:20:08;94386.03;;;-14.55;70.81
68141;BME280;54941;52.220;104.306;2023-12-07T03:22:35;94386.22;;;-14.28;70.03
68141;BME280;54941;52.220;104.306;2023-12-07T03:25:01;94401.63;;;-14.23;70.33
68141;BME280;54941;52.220;104.306;2023-12-07T03:27:28;94423.81;;;-14.18;70.03
68141;BME280;54941;52.220;104.306;2023-12-07T03:29:54;94456.72;;;-13.98;69.77
68141;BME280;54941;52.220;104.306;2023-12-07T03:32:21;94457.22;;;-14.07;70.34
68141;BME280;54941;52.220;104.306;2023-12-07T03:34:47;94440.66;;;-13.99;69.73
68141;BME280;54941;52.220;104.306;2023-12-07T03:37:15;94467.00;;;-14.16;69.49
68141;BME280;54941;52.220;104.306;2023-12-07T03:39:41;94474.06;;;-13.88;68.98
68141;BME280;54941;52.220;104.306;2023-12-07T03:42:08;94491.66;;;-13.48;68.39
68141;BME280;54941;52.220;104.306;2023-12-07T03:44:34;94507.25;;;-13.39;68.09
68141;BME280;54941;52.220;104.306;2023-12-07T03:47:01;94508.22;;;-13.35;67.55
68141;BME280;54941;52.220;104.306;2023-12-07T03:49:27;94509.84;;;-13.60;68.19
68141;BME280;54941;52.220;104.306;2023-12-07T03:51:54;94518.84;;;-13.45;68.38
68141;BME280;54941;52.220;104.306;2023-12-07T03:54:22;94518.84;;;-13.45;68.08
68141;BME280;54941;52.220;104.306;2023-12-07T03:56:48;94520.75;;;-14.04;69.49
68141;BME280;54941;52.220;104.306;2023-12-07T03:59:15;94511.63;;;-14.00;70.00
68141;BME280;54941;52.220;104.306;2023-12-07T04:01:41;94514.59;;;-13.67;68.92
68141;BME280;54941;52.220;104.306;2023-12-07T04:04:07;94528.75;;;-13.74;68.80
68141;BME280;54941;52.220;104.306;2023-12-07T04:06:34;94538.09;;;-13.73;68.27
68141;BME280;54941;52.220;104.306;2023-12-07T04:09:00;94532.13;;;-13.52;67.58
68141;BME280;54941;52.220;104.306;2023-12-07T04:11:28;94553.06;;;-13.79;67.83
68141;BME280;54941;52.220;104.306;2023-12-07T04:13:55;94568.06;;;-13.64;68.00
68141;BME280;54941;52.220;104.306;2023-12-07T04:16:21;94570.72;;;-13.82;68.56
68141;BME280;54941;52.220;104.306;2023-12-07T04:18:47;94572.69;;;-13.96;68.70
68141;BME280;54941;52.220;104.306;2023-12-07T04:21:14;94568.00;;;-13.66;68.36
68141;BME280;54941;52.220;104.306;2023-12-07T04:23:40;94574.59;;;-13.69;67.06
68141;BME280;54941;52.220;104.306;2023-12-07T04:26:06;94598.75;;;-13.79;67.20
68141;BME280;54941;52.220;104.306;2023-12-07T04:28:35;94593.44;;;-13.85;67.35
68141;BME280;54941;52.220;104.306;2023-12-07T04:31:01;94603.66;;;-13.83;67.89
68141;BME280;54941;52.220;104.306;2023-12-07T04:33:28;94599.97;;;-13.90;67.86
68141;BME280;54941;52.220;104.306;2023-12-07T04:35:54;94587.25;;;-13.71;67.88
68141;BME280;54941;52.220;104.306;2023-12-07T04:38:20;94599.72;;;-13.55;67.62
68141;BME280;54941;52.220;104.306;2023-12-07T04:40:47;94607.50;;;-13.51;66.89
68141;BME280;54941;52.220;104.306;2023-12-07T04:43:13;94620.63;;;-13.62;67.40
68141;BME280;54941;52.220;104.306;2023-12-07T04:45:41;94624.16;;;-13.58;68.40
68141;BME280;54941;52.220;104.306;2023-12-07T04:48:07;94637.47;;;-13.64;67.97
68141;BME280;54941;52.220;104.306;2023-12-07T04:50:34;94644.19;;;-13.43;67.71
68141;BME280;54941;52.220;104.306;2023-12-07T04:53:00;94671.41;;;-13.81;68.54
68141;BME280;54941;52.220;104.306;2023-12-07T04:55:26;94680.72;;;-13.41;68.36
68141;BME280;54941;52.220;104.306;2023-12-07T04:57:53;94673.44;;;-13.32;67.77
68141;BME280;54941;52.220;104.306;2023-12-07T05:00:19;94677.59;;;-13.34;67.88
68141;BME280;54941;52.220;104.306;2023-12-07T05:02:47;94677.63;;;-13.12;66.54
68141;BME280;54941;52.220;104.306;2023-12-07T05:05:14;94684.88;;;-13.00;66.90
68141;BME280;54941;52.220;104.306;2023-12-07T05:07:40;94695.06;;;-13.21;66.26
68141;BME280;54941;52.220;104.306;2023-12-07T05:10:07;94730.13;;;-13.54;67.11
68141;BME280;54941;52.220;104.306;2023-12-07T05:12:34;94745.03;;;-13.62;65.93
68141;BME280;54941;52.220;104.306;2023-12-07T05:15:00;94763.38;;;-13.48;66.61
68141;BME280;54941;52.220;104.306;2023-12-07T05:17:26;94779.53;;;-13.46;67.23
68141;BME280;54941;52.220;104.306;2023-12-07T05:19:54;94779.25;;;-13.12;67.19
68141;BME280;54941;52.220;104.306;2023-12-07T05:22:21;94786.69;;;-13.16;66.69
68141;BME280;54941;52.220;104.306;2023-12-07T05:24:47;94799.16;;;-13.02;66.14
68141;BME280;54941;52.220;104.306;2023-12-07T05:27:13;94816.78;;;-13.66;67.32
68141;BME280;54941;52.220;104.306;2023-12-07T05:29:40;94823.19;;;-13.35;66.47
68141;BME280;54941;52.220;104.306;2023-12-07T05:32:06;94830.81;;;-13.35;66.09
68141;BME280;54941;52.220;104.306;2023-12-07T05:34:33;94831.94;;;-13.48;66.67
68141;BME280;54941;52.220;104.306;2023-12-07T05:37:01;94831.66;;;-13.35;66.81
68141;BME280;54941;52.220;104.306;2023-12-07T05:39:27;94831.19;;;-13.26;66.67
68141;BME280;54941;52.220;104.306;2023-12-07T05:41:54;94833.75;;;-13.45;67.16
68141;BME280;54941;52.220;104.306;2023-12-07T05:44:20;94848.31;;;-13.22;66.56
68141;BME280;54941;52.220;104.306;2023-12-07T05:46:46;94852.25;;;-13.48;67.20
68141;BME280;54941;52.220;104.306;2023-12-07T05:49:13;94858.53;;;-13.59;66.45
68141;BME280;54941;52.220;104.306;2023-12-07T05:51:39;94846.34;;;-13.66;66.47
68141;BME280;54941;52.220;104.306;2023-12-07T05:54:07;94828.88;;;-13.60;67.00
68141;BME280;54941;52.220;104.306;2023-12-07T05:56:33;94838.84;;;-13.65;66.35
68141;BME280;54941;52.220;104.306;2023-12-07T05:59:00;94831.00;;;-13.69;67.04
68141;BME280;54941;52.220;104.306;2023-12-07T06:01:26;94841.75;;;-13.56;66.94
68141;BME280;54941;52.220;104.306;2023-12-07T06:03:53;94847.28;;;-13.83;66.13
68141;BME280;54941;52.220;104.306;2023-12-07T06:06:19;94852.50;;;-13.80;66.36
68141;BME280;54941;52.220;104.306;2023-12-07T06:08:45;94853.97;;;-13.86;66.99
68141;BME280;54941;52.220;104.306;2023-12-07T06:11:13;94859.19;;;-13.82;67.21
68141;BME280;54941;52.220;104.306;2023-12-07T06:13:40;94881.91;;;-13.66;66.43
68141;BME280;54941;52.220;104.306;2023-12-07T06:16:06;94890.41;;;-13.46;65.99
68141;BME280;54941;52.220;104.306;2023-12-07T06:18:33;94887.13;;;-13.44;65.60
68141;BME280;54941;52.220;104.306;2023-12-07T06:20:59;94896.38;;;-13.46;65.41
68141;BME280;54941;52.220;104.306;2023-12-07T06:23:25;94905.41;;;-13.52;66.43
68141;BME280;54941;52.220;104.306;2023-12-07T06:25:52;94919.34;;;-13.80;66.39
68141;BME280;54941;52.220;104.306;2023-12-07T06:28:20;94924.34;;;-13.64;66.37
68141;BME280;54941;52.220;104.306;2023-12-07T06:30:46;94927.88;;;-13.42;66.48
68141;BME280;54941;52.220;104.306;2023-12-07T06:33:12;94939.03;;;-13.39;66.58
68141;BME280;54941;52.220;104.306;2023-12-07T06:35:39;94948.06;;;-13.63;66.88
68141;BME280;54941;52.220;104.306;2023-12-07T06:38:05;94957.13;;;-13.68;66.66
68141;BME280;54941;52.220;104.306;2023-12-07T06:40:31;94957.00;;;-13.34;66.22
68141;BME280;54941;52.220;104.306;2023-12-07T06:42:58;94980.72;;;-13.53;66.81
68141;BME280;54941;52.220;104.306;2023-12-07T06:45:26;94992.16;;;-13.61;67.08
68141;BME280;54941;52.220;104.306;2023-12-07T06:47:52;95004.56;;;-13.67;67.73
68141;BME280;54941;52.220;104.306;2023-12-07T06:50:19;95009.94;;;-13.79;68.14
68141;BME280;54941;52.220;104.306;2023-12-07T06:52:45;95024.81;;;-13.69;67.82
68141;BME280;54941;52.220;104.306;2023-12-07T06:55:11;95034.59;;;-13.59;65.61
68141;BME280;54941;52.220;104.306;2023-12-07T06:57:38;95045.00;;;-13.54;66.50
68141;BME280;54941;52.220;104.306;2023-12-07T07:00:05;95050.25;;;-13.85;66.55
68141;BME280;54941;52.220;104.306;2023-12-07T07:02:35;95055.94;;;-14.07;67.11
68141;BME280;54941;52.220;104.306;2023-12-07T07:05:02;95055.28;;;-14.03;67.90
68141;BME280;54941;52.220;104.306;2023-12-07T07:07:30;95054.75;;;-13.97;67.74
68141;BME280;54941;52.220;104.306;2023-12-07T07:09:56;95066.81;;;-14.09;67.86
68141;BME280;54941;52.220;104.306;2023-12-07T07:12:23;95059.03;;;-14.13;67.69
68141;BME280;54941;52.220;104.306;2023-12-07T07:14:51;95076.84;;;-14.29;68.02
68141;BME280;54941;52.220;104.306;2023-12-07T07:17:18;95084.44;;;-14.29;68.52
68141;BME280;54941;52.220;104.306;2023-12-07T07:19:45;95105.16;;;-14.03;68.22
68141;BME280;54941;52.220;104.306;2023-12-07T07:22:12;95112.16;;;-14.16;68.70
68141;BME280;54941;52.220;104.306;2023-12-07T07:24:38;95125.91;;;-14.12;68.61
68141;BME280;54941;52.220;104.306;2023-12-07T07:27:05;95129.19;;;-14.13;68.64
68141;BME280;54941;52.220;104.306;2023-12-07T07:29:31;95137.53;;;-14.16;69.14
68141;BME280;54941;52.220;104.306;2023-12-07T07:31:57;95132.81;;;-13.92;68.57
68141;BME280;54941;52.220;104.306;2023-12-07T07:34:24;95133.94;;;-13.87;68.07
68141;BME280;54941;52.220;104.306;2023-12-07T07:36:52;95151.56;;;-14.06;67.82
68141;BME280;54941;52.220;104.306;2023-12-07T07:39:18;95155.19;;;-14.01;67.88
68141;BME280;54941;52.220;104.306;2023-12-07T07:41:44;95156.63;;;-13.90;66.81
68141;BME280;54941;52.220;104.306;2023-12-07T07:44:11;95161.31;;;-14.14;66.94
68141;BME280;54941;52.220;104.306;2023-12-07T07:46:37;95177.91;;;-14.20;67.18
68141;BME280;54941;52.220;104.306;2023-12-07T07:49:03;95185.81;;;-14.14;67.97
68141;BME280;54941;52.220;104.306;2023-12-07T07:51:30;95202.28;;;-13.90;67.46
68141;BME280;54941;52.220;104.306;2023-12-07T07:53:58;95203.09;;;-13.91;67.07
68141;BME280;54941;52.220;104.306;2023-12-07T07:56:24;95221.66;;;-14.08;66.39
68141;BME280;54941;52.220;104.306;2023-12-07T07:58:51;95216.09;;;-14.17;66.49
68141;BME280;54941;52.220;104.306;2023-12-07T08:01:17;95219.53;;;-14.00;65.94
68141;BME280;54941;52.220;104.306;2023-12-07T08:03:43;95221.81;;;-14.21;65.95
68141;BME280;54941;52.220;104.306;2023-12-07T08:06:10;95244.31;;;-14.27;67.44
68141;BME280;54941;52.220;104.306;2023-12-07T08:08:36;95241.69;;;-14.13;67.23
68141;BME280;54941;52.220;104.306;2023-12-07T08:11:04;95245.44;;;-14.22;67.57
68141;BME280;54941;52.220;104.306;2023-12-07T08:13:30;95253.13;;;-14.21;67.88
68141;BME280;54941;52.220;104.306;2023-12-07T08:15:57;95251.50;;;-14.51;68.23
68141;BME280;54941;52.220;104.306;2023-12-07T08:18:23;95263.75;;;-14.44;68.63
68141;BME280;54941;52.220;104.306;2023-12-07T08:20:49;95271.63;;;-14.07;68.23
68141;BME280;54941;52.220;104.306;2023-12-07T08:23:16;95285.25;;;-14.36;68.18
68141;BME280;54941;52.220;104.306;2023-12-07T08:25:42;95290.69;;;-14.14;68.55
68141;BME280;54941;52.220;104.306;2023-12-07T08:28:10;95292.88;;;-14.36;68.90
68141;BME280;54941;52.220;104.306;2023-12-07T08:30:36;95288.56;;;-14.22;69.01
68141;BME280;54941;52.220;104.306;2023-12-07T08:33:03;95308.59;;;-14.27;69.51
68141;BME280;54941;52.220;104.306;2023-12-07T08:35:29;95317.28;;;-14.38;70.19
68141;BME280;54941;52.220;104.306;2023-12-07T08:37:56;95318.78;;;-14.41;70.03
68141;BME280;54941;52.220;104.306;2023-12-07T08:40:22;95317.88;;;-14.27;70.02
68141;BME280;54941;52.220;104.306;2023-12-07T08:42:48;95317.09;;;-14.57;70.83
68141;BME280;54941;52.220;104.306;2023-12-07T08:45:16;95322.91;;;-14.44;70.83
68141;BME280;54941;52.220;104.306;2023-12-07T08:47:43;95328.06;;;-14.42;71.20
68141;BME280;54941;52.220;104.306;2023-12-07T08:50:09;95343.06;;;-14.47;71.56
68141;BME280;54941;52.220;104.306;2023-12-07T08:52:36;95356.53;;;-14.62;72.16
68141;BME280;54941;52.220;104.306;2023-12-07T08:55:03;95368.63;;;-14.42;71.92
68141;BME280;54941;52.220;104.306;2023-12-07T08:57:31;95374.47;;;-14.28;72.15
68141;BME280;54941;52.220;104.306;2023-12-07T08:59:57;95380.50;;;-14.41;72.25
68141;BME280;54941;52.220;104.306;2023-12-07T09:02:25;95381.81;;;-14.33;72.07
68141;BME280;54941;52.220;104.306;2023-12-07T09:04:52;95384.59;;;-14.28;71.83
68141;BME280;54941;52.220;104.306;2023-12-07T09:07:18;95394.72;;;-14.14;71.01
68141;BME280;54941;52.220;104.306;2023-12-07T09:09:45;95399.31;;;-14.23;71.60
68141;BME280;54941;52.220;104.306;2023-12-07T09:12:11;95399.38;;;-14.36;71.34
68141;BME280;54941;52.220;104.306;2023-12-07T09:14:38;95398.44;;;-14.23;71.83
68141;BME280;54941;52.220;104.306;2023-12-07T09:17:04;95401.16;;;-14.35;71.62
68141;BME280;54941;52.220;104.306;2023-12-07T09:19:32;95402.47;;;-14.41;71.77
68141;BME280;54941;52.220;104.306;2023-12-07T09:21:58;95412.66;;;-14.56;71.75
68141;BME280;54941;52.220;104.306;2023-12-07T09:24:25;95416.69;;;-14.45;71.77
68141;BME280;54941;52.220;104.306;2023-12-07T09:26:51;95419.13;;;-14.47;71.65
68141;BME280;54941;52.220;104.306;2023-12-07T09:29:17;95452.78;;;-14.49;72.35
68141;BME280;54941;52.220;104.306;2023-12-07T09:31:44;95449.28;;;-14.51;71.47
68141;BME280;54941;52.220;104.306;2023-12-07T09:34:10;95467.00;;;-14.36;70.57
68141;BME280;54941;52.220;104.306;2023-12-07T09:36:38;95488.34;;;-14.48;71.30
68141;BME280;54941;52.220;104.306;2023-12-07T09:39:04;95492.63;;;-14.32;71.04
68141;BME280;54941;52.220;104.306;2023-12-07T09:41:30;95493.41;;;-14.62;71.13
68141;BME280;54941;52.220;104.306;2023-12-07T09:43:57;95508.69;;;-14.76;73.47
68141;BME280;54941;52.220;104.306;2023-12-07T09:46:23;95518.50;;;-14.95;73.99
68141;BME280;54941;52.220;104.306;2023-12-07T09:48:50;95501.97;;;-14.60;73.65
68141;BME280;54941;52.220;104.306;2023-12-07T09:51:17;95507.44;;;-14.54;73.98
68141;BME280;54941;52.220;104.306;2023-12-07T09:53:48;95517.31;;;-14.44;73.21
68141;BME280;54941;52.220;104.306;2023-12-07T09:56:14;95512.06;;;-14.47;71.71
68141;BME280;54941;52.220;104.306;2023-12-07T09:58:41;95519.94;;;-14.57;72.14
68141;BME280;54941;52.220;104.306;2023-12-07T10:01:07;95527.00;;;-14.66;72.55
68141;BME280;54941;52.220;104.306;2023-12-07T10:03:34;95535.91;;;-14.44;71.33
68141;BME280;54941;52.220;104.306;2023-12-07T10:06:00;95539.50;;;-14.69;70.95
68141;BME280;54941;52.220;104.306;2023-12-07T10:08:28;95546.25;;;-14.55;70.70
68141;BME280;54941;52.220;104.306;2023-12-07T10:11:07;95549.28;;;-14.89;73.24
68141;BME280;54941;52.220;104.306;2023-12-07T10:13:34;95563.81;;;-14.86;73.87
68141;BME280;54941;52.220;104.306;2023-12-07T10:16:09;95576.50;;;-14.99;72.83
68141;BME280;54941;52.220;104.306;2023-12-07T10:18:35;95586.16;;;-15.07;73.59
68141;BME280;54941;52.220;104.306;2023-12-07T10:21:02;95617.06;;;-14.99;74.99
68141;BME280;54941;52.220;104.306;2023-12-07T10:23:29;95614.78;;;-14.95;72.75
68141;BME280;54941;52.220;104.306;2023-12-07T10:25:55;95614.72;;;-15.10;72.69
68141;BME280;54941;52.220;104.306;2023-12-07T10:28:24;95622.59;;;-15.05;71.59
68141;BME280;54941;52.220;104.306;2023-12-07T10:30:50;95641.81;;;-15.09;70.60
68141;BME280;54941;52.220;104.306;2023-12-07T10:33:19;95643.75;;;-15.31;71.17
68141;BME280;54941;52.220;104.306;2023-12-07T10:35:47;95651.47;;;-15.29;69.51
68141;BME280;54941;52.220;104.306;2023-12-07T10:38:13;95671.34;;;-15.36;68.51
68141;BME280;54941;52.220;104.306;2023-12-07T10:40:40;95672.47;;;-15.57;67.88
68141;BME280;54941;52.220;104.306;2023-12-07T10:43:07;95677.84;;;-15.52;67.40
68141;BME280;54941;52.220;104.306;2023-12-07T10:45:36;95684.97;;;-15.47;66.58
68141;BME280;54941;52.220;104.306;2023-12-07T10:48:03;95704.41;;;-15.59;66.62
68141;BME280;54941;52.220;104.306;2023-12-07T10:50:32;95714.75;;;-15.69;66.58
68141;BME280;54941;52.220;104.306;2023-12-07T10:53:05;95717.44;;;-15.79;65.70
68141;BME280;54941;52.220;104.306;2023-12-07T10:55:40;95722.00;;;-16.12;66.14
68141;BME280;54941;52.220;104.306;2023-12-07T10:58:08;95727.81;;;-15.88;65.90
68141;BME280;54941;52.220;104.306;2023-12-07T11:00:37;95735.75;;;-16.08;65.35
68141;BME280;54941;52.220;104.306;2023-12-07T11:03:04;95747.66;;;-16.19;65.60
68141;BME280;54941;52.220;104.306;2023-12-07T11:05:30;95767.53;;;-16.24;66.19
68141;BME280;54941;52.220;104.306;2023-12-07T11:08:00;95770.06;;;-16.24;65.89
68141;BME280;54941;52.220;104.306;2023-12-07T11:10:34;95778.50;;;-16.11;65.51
68141;BME280;54941;52.220;104.306;2023-12-07T11:13:11;95799.63;;;-16.11;65.34
68141;BME280;54941;52.220;104.306;2023-12-07T11:15:41;95804.81;;;-16.21;65.76
68141;BME280;54941;52.220;104.306;2023-12-07T11:18:07;95826.06;;;-16.31;66.23
68141;BME280;54941;52.220;104.306;2023-12-07T11:20:40;95828.47;;;-16.32;66.12
68141;BME280;54941;52.220;104.306;2023-12-07T11:23:07;95831.00;;;-16.32;66.49
68141;BME280;54941;52.220;104.306;2023-12-07T11:25:33;95837.28;;;-16.51;67.15
68141;BME280;54941;52.220;104.306;2023-12-07T11:28:00;95856.06;;;-16.47;67.48
68141;BME280;54941;52.220;104.306;2023-12-07T11:30:27;95856.28;;;-16.44;67.70
68141;BME280;54941;52.220;104.306;2023-12-07T11:32:55;95857.53;;;-16.51;67.80
68141;BME280;54941;52.220;104.306;2023-12-07T11:35:22;95875.78;;;-16.66;67.35
68141;BME280;54941;52.220;104.306;2023-12-07T11:38:04;95876.78;;;-16.76;67.40
68141;BME280;54941;52.220;104.306;2023-12-07T11:40:31;95876.06;;;-17.08;67.96
68141;BME280;54941;52.220;104.306;2023-12-07T11:42:59;95895.53;;;-16.96;68.55
68141;BME280;54941;52.220;104.306;2023-12-07T11:45:41;95887.75;;;-16.87;68.10
68141;BME280;54941;52.220;104.306;2023-12-07T11:48:13;95906.78;;;-17.14;68.79
68141;BME280;54941;52.220;104.306;2023-12-07T11:51:03;95896.97;;;-16.99;68.99
68141;BME280;54941;52.220;104.306;2023-12-07T11:53:31;95896.25;;;-17.20;68.81
68141;BME280;54941;52.220;104.306;2023-12-07T11:55:59;95897.66;;;-17.24;69.12
68141;BME280;54941;52.220;104.306;2023-12-07T11:58:26;95913.56;;;-17.25;68.58
68141;BME280;54941;52.220;104.306;2023-12-07T12:00:52;95931.91;;;-17.16;69.15
68141;BME280;54941;52.220;104.306;2023-12-07T12:03:21;95946.09;;;-17.40;68.69
68141;BME280;54941;52.220;104.306;2023-12-07T12:05:48;95952.50;;;-17.33;68.76
68141;BME280;54941;52.220;104.306;2023-12-07T12:08:15;95958.88;;;-17.48;69.30
68141;BME280;54941;52.220;104.306;2023-12-07T12:10:43;95967.38;;;-17.48;69.88
68141;BME280;54941;52.220;104.306;2023-12-07T12:13:10;95971.28;;;-17.51;71.03
68141;BME280;54941;52.220;104.306;2023-12-07T12:15:37;95966.13;;;-17.31;69.65
68141;BME280;54941;52.220;104.306;2023-12-07T12:18:04;95963.59;;;-17.31;70.27
68141;BME280;54941;52.220;104.306;2023-12-07T12:20:32;95994.69;;;-17.42;70.14
68141;BME280;54941;52.220;104.306;2023-12-07T12:22:59;95984.59;;;-17.42;70.32
68141;BME280;54941;52.220;104.306;2023-12-07T12:25:26;95992.00;;;-17.33;69.62
68141;BME280;54941;52.220;104.306;2023-12-07T12:27:54;95993.47;;;-17.25;69.34
68141;BME280;54941;52.220;104.306;2023-12-07T12:30:21;96004.44;;;-17.25;69.33